sensor_id;sensor_type;location;lat;lon;timestamp;temperature;humidity
9103;DHT22;4587;51.434;6.788;2023-06-14T00:00:39;21.10;65.90
9103;DHT22;4587;51.434;6.788;2023-06-14T00:03:08;21.10;66.00
9103;DHT22;4587;51.434;6.788;2023-06-14T00:05:38;21.10;66.20
9103;DHT22;4587;51.434;6.788;2023-06-14T00:08:07;21.10;66.50
9103;DHT22;4587;51.434;6.788;2023-06-14T00:10:34;21.10;66.60
9103;DHT22;4587;51.434;6.788;2023-06-14T00:13:03;21.00;66.70
9103;DHT22;4587;51.434;6.788;2023-06-14T00:15:31;20.90;66.80
9103;DHT22;4587;51.434;6.788;2023-06-14T00:17:57;20.90;67.20
9103;DHT22;4587;51.434;6.788;2023-06-14T00:20:27;20.90;67.50
9103;DHT22;4587;51.434;6.788;2023-06-14T00:22:53;20.80;67.90
9103;DHT22;4587;51.434;6.788;2023-06-14T00:25:21;20.80;68.20
9103;DHT22;4587;51.434;6.788;2023-06-14T00:27:47;20.80;68.20
9103;DHT22;4587;51.434;6.788;2023-06-14T00:30:13;20.70;68.40
9103;DHT22;4587;51.434;6.788;2023-06-14T00:32:39;20.70;68.70
9103;DHT22;4587;51.434;6.788;2023-06-14T00:35:04;20.70;69.20
9103;DHT22;4587;51.434;6.788;2023-06-14T00:37:30;20.60;69.30
9103;DHT22;4587;51.434;6.788;2023-06-14T00:39:56;20.60;69.70
9103;DHT22;4587;51.434;6.788;2023-06-14T00:42:28;20.60;70.10
9103;DHT22;4587;51.434;6.788;2023-06-14T00:44:54;20.60;70.40
9103;DHT22;4587;51.434;6.788;2023-06-14T00:47:20;20.60;70.70
9103;DHT22;4587;51.434;6.788;2023-06-14T00:49:47;20.50;70.60
9103;DHT22;4587;51.434;6.788;2023-06-14T00:52:14;20.50;71.30
9103;DHT22;4587;51.434;6.788;2023-06-14T00:54:40;20.50;71.20
9103;DHT22;4587;51.434;6.788;2023-06-14T00:57:10;20.50;70.60
9103;DHT22;4587;51.434;6.788;2023-06-14T00:59:40;20.40;71.20
9103;DHT22;4587;51.434;6.788;2023-06-14T01:02:07;20.40;71.70
9103;DHT22;4587;51.434;6.788;2023-06-14T01:04:32;20.30;71.50
9103;DHT22;4587;51.434;6.788;2023-06-14T01:12:29;20.20;72.30
9103;DHT22;4587;51.434;6.788;2023-06-14T01:14:57;20.20;72.50
9103;DHT22;4587;51.434;6.788;2023-06-14T01:17:24;20.10;72.50
9103;DHT22;4587;51.434;6.788;2023-06-14T01:19:52;20.10;72.60
9103;DHT22;4587;51.434;6.788;2023-06-14T01:22:26;20.00;72.90
9103;DHT22;4587;51.434;6.788;2023-06-14T01:24:53;20.00;73.40
9103;DHT22;4587;51.434;6.788;2023-06-14T01:27:22;19.90;73.20
9103;DHT22;4587;51.434;6.788;2023-06-14T01:29:52;19.90;73.50
9103;DHT22;4587;51.434;6.788;2023-06-14T01:32:23;20.00;73.50
9103;DHT22;4587;51.434;6.788;2023-06-14T01:34:50;20.00;73.40
9103;DHT22;4587;51.434;6.788;2023-06-14T01:37:16;19.90;73.60
9103;DHT22;4587;51.434;6.788;2023-06-14T01:39:43;19.90;74.10
9103;DHT22;4587;51.434;6.788;2023-06-14T01:42:10;19.80;74.20
9103;DHT22;4587;51.434;6.788;2023-06-14T01:44:37;19.70;74.50
9103;DHT22;4587;51.434;6.788;2023-06-14T01:47:02;19.70;74.90
9103;DHT22;4587;51.434;6.788;2023-06-14T01:49:28;19.70;75.20
9103;DHT22;4587;51.434;6.788;2023-06-14T01:51:54;19.70;75.30
9103;DHT22;4587;51.434;6.788;2023-06-14T01:54:19;19.60;75.20
9103;DHT22;4587;51.434;6.788;2023-06-14T01:56:45;19.60;75.70
9103;DHT22;4587;51.434;6.788;2023-06-14T01:59:10;19.60;75.90
9103;DHT22;4587;51.434;6.788;2023-06-14T02:01:36;19.50;76.00
9103;DHT22;4587;51.434;6.788;2023-06-14T02:04:02;19.50;76.30
9103;DHT22;4587;51.434;6.788;2023-06-14T02:06:27;19.50;76.80
9103;DHT22;4587;51.434;6.788;2023-06-14T02:08:53;19.50;77.20
9103;DHT22;4587;51.434;6.788;2023-06-14T02:11:19;19.40;77.20
9103;DHT22;4587;51.434;6.788;2023-06-14T02:13:44;19.40;77.20
9103;DHT22;4587;51.434;6.788;2023-06-14T02:16:10;19.40;77.20
9103;DHT22;4587;51.434;6.788;2023-06-14T02:18:36;19.40;77.50
9103;DHT22;4587;51.434;6.788;2023-06-14T02:21:02;19.40;77.70
9103;DHT22;4587;51.434;6.788;2023-06-14T02:23:27;19.40;78.00
9103;DHT22;4587;51.434;6.788;2023-06-14T02:25:53;19.30;77.90
9103;DHT22;4587;51.434;6.788;2023-06-14T02:28:18;19.20;78.70
9103;DHT22;4587;51.434;6.788;2023-06-14T02:30:44;19.20;78.70
9103;DHT22;4587;51.434;6.788;2023-06-14T02:33:09;19.20;79.00
9103;DHT22;4587;51.434;6.788;2023-06-14T02:35:38;19.10;79.40
9103;DHT22;4587;51.434;6.788;2023-06-14T02:38:03;19.10;79.40
9103;DHT22;4587;51.434;6.788;2023-06-14T02:40:29;19.00;79.70
9103;DHT22;4587;51.434;6.788;2023-06-14T02:42:55;19.00;80.10
9103;DHT22;4587;51.434;6.788;2023-06-14T02:45:20;19.00;80.40
9103;DHT22;4587;51.434;6.788;2023-06-14T02:47:46;19.00;80.10
9103;DHT22;4587;51.434;6.788;2023-06-14T02:50:12;19.00;80.40
9103;DHT22;4587;51.434;6.788;2023-06-14T02:52:37;19.00;80.40
9103;DHT22;4587;51.434;6.788;2023-06-14T02:55:03;19.00;80.20
9103;DHT22;4587;51.434;6.788;2023-06-14T02:57:30;18.90;80.80
9103;DHT22;4587;51.434;6.788;2023-06-14T02:59:55;18.90;81.10
9103;DHT22;4587;51.434;6.788;2023-06-14T03:02:21;18.90;81.40
9103;DHT22;4587;51.434;6.788;2023-06-14T03:04:46;18.90;81.50
9103;DHT22;4587;51.434;6.788;2023-06-14T03:07:12;18.80;81.70
9103;DHT22;4587;51.434;6.788;2023-06-14T03:09:38;18.90;81.70
9103;DHT22;4587;51.434;6.788;2023-06-14T03:12:05;18.90;81.70
9103;DHT22;4587;51.434;6.788;2023-06-14T03:14:32;18.90;81.70
9103;DHT22;4587;51.434;6.788;2023-06-14T03:16:58;18.80;82.70
9103;DHT22;4587;51.434;6.788;2023-06-14T03:19:24;18.80;82.30
9103;DHT22;4587;51.434;6.788;2023-06-14T03:21:51;18.70;82.80
9103;DHT22;4587;51.434;6.788;2023-06-14T03:24:17;18.70;82.70
9103;DHT22;4587;51.434;6.788;2023-06-14T03:26:43;18.70;82.90
9103;DHT22;4587;51.434;6.788;2023-06-14T03:29:08;18.60;83.60
9103;DHT22;4587;51.434;6.788;2023-06-14T03:31:34;18.60;84.10
9103;DHT22;4587;51.434;6.788;2023-06-14T03:34:00;18.60;84.70
9103;DHT22;4587;51.434;6.788;2023-06-14T03:36:26;18.60;84.50
9103;DHT22;4587;51.434;6.788;2023-06-14T03:38:53;18.50;84.50
9103;DHT22;4587;51.434;6.788;2023-06-14T03:41:19;18.50;84.80
9103;DHT22;4587;51.434;6.788;2023-06-14T03:43:44;18.50;85.10
9103;DHT22;4587;51.434;6.788;2023-06-14T03:46:10;18.50;85.00
9103;DHT22;4587;51.434;6.788;2023-06-14T03:48:36;18.60;85.20
9103;DHT22;4587;51.434;6.788;2023-06-14T03:51:01;18.60;85.10
9103;DHT22;4587;51.434;6.788;2023-06-14T03:53:27;18.60;85.70
9103;DHT22;4587;51.434;6.788;2023-06-14T03:55:54;18.50;85.70
9103;DHT22;4587;51.434;6.788;2023-06-14T03:58:20;18.50;86.00
9103;DHT22;4587;51.434;6.788;2023-06-14T04:00:46;18.50;85.50
9103;DHT22;4587;51.434;6.788;2023-06-14T04:03:11;18.40;85.70
9103;DHT22;4587;51.434;6.788;2023-06-14T04:05:39;18.50;86.30
9103;DHT22;4587;51.434;6.788;2023-06-14T04:08:08;18.50;86.80
9103;DHT22;4587;51.434;6.788;2023-06-14T04:10:34;18.50;86.40
9103;DHT22;4587;51.434;6.788;2023-06-14T04:13:00;18.50;86.90
9103;DHT22;4587;51.434;6.788;2023-06-14T04:15:25;18.50;87.80
9103;DHT22;4587;51.434;6.788;2023-06-14T04:17:53;18.50;87.30
9103;DHT22;4587;51.434;6.788;2023-06-14T04:20:23;18.50;87.90
9103;DHT22;4587;51.434;6.788;2023-06-14T04:22:50;18.50;88.10
9103;DHT22;4587;51.434;6.788;2023-06-14T04:25:16;18.50;87.80
9103;DHT22;4587;51.434;6.788;2023-06-14T04:27:42;18.50;87.20
9103;DHT22;4587;51.434;6.788;2023-06-14T04:30:08;18.60;87.40
9103;DHT22;4587;51.434;6.788;2023-06-14T04:32:34;18.60;87.10
9103;DHT22;4587;51.434;6.788;2023-06-14T04:35:04;18.60;87.20
9103;DHT22;4587;51.434;6.788;2023-06-14T04:37:30;18.60;87.30
9103;DHT22;4587;51.434;6.788;2023-06-14T04:39:56;18.60;87.40
9103;DHT22;4587;51.434;6.788;2023-06-14T04:42:22;18.70;87.00
9103;DHT22;4587;51.434;6.788;2023-06-14T04:44:56;18.80;86.50
9103;DHT22;4587;51.434;6.788;2023-06-14T04:47:23;18.70;86.50
9103;DHT22;4587;51.434;6.788;2023-06-14T04:49:50;18.70;86.50
9103;DHT22;4587;51.434;6.788;2023-06-14T04:52:17;18.70;87.10
9103;DHT22;4587;51.434;6.788;2023-06-14T04:54:46;18.70;87.20
9103;DHT22;4587;51.434;6.788;2023-06-14T04:57:12;18.70;87.60
9103;DHT22;4587;51.434;6.788;2023-06-14T04:59:40;18.70;88.00
9103;DHT22;4587;51.434;6.788;2023-06-14T05:02:05;18.70;87.80
9103;DHT22;4587;51.434;6.788;2023-06-14T05:04:32;18.80;88.20
9103;DHT22;4587;51.434;6.788;2023-06-14T05:06:58;18.80;87.90
9103;DHT22;4587;51.434;6.788;2023-06-14T05:09:23;18.90;88.00
9103;DHT22;4587;51.434;6.788;2023-06-14T05:11:49;18.90;87.90
9103;DHT22;4587;51.434;6.788;2023-06-14T05:14:15;19.00;88.10
9103;DHT22;4587;51.434;6.788;2023-06-14T05:16:41;19.10;87.30
9103;DHT22;4587;51.434;6.788;2023-06-14T05:19:08;19.20;88.40
9103;DHT22;4587;51.434;6.788;2023-06-14T05:21:34;19.30;87.20
9103;DHT22;4587;51.434;6.788;2023-06-14T05:24:00;19.40;87.30
9103;DHT22;4587;51.434;6.788;2023-06-14T05:26:26;19.70;86.10
9103;DHT22;4587;51.434;6.788;2023-06-14T05:28:55;20.10;84.90
9103;DHT22;4587;51.434;6.788;2023-06-14T05:31:22;20.30;83.50
9103;DHT22;4587;51.434;6.788;2023-06-14T05:33:49;20.70;82.50
9103;DHT22;4587;51.434;6.788;2023-06-14T05:36:15;21.10;80.20
9103;DHT22;4587;51.434;6.788;2023-06-14T05:38:40;22.10;77.60
9103;DHT22;4587;51.434;6.788;2023-06-14T05:41:06;22.90;74.40
9103;DHT22;4587;51.434;6.788;2023-06-14T05:43:31;22.70;74.60
9103;DHT22;4587;51.434;6.788;2023-06-14T05:45:57;22.60;74.60
9103;DHT22;4587;51.434;6.788;2023-06-14T05:48:22;22.80;73.30
9103;DHT22;4587;51.434;6.788;2023-06-14T05:50:48;22.60;73.50
9103;DHT22;4587;51.434;6.788;2023-06-14T05:53:13;22.20;73.90
9103;DHT22;4587;51.434;6.788;2023-06-14T05:55:39;21.90;75.40
9103;DHT22;4587;51.434;6.788;2023-06-14T05:58:05;21.50;76.20
9103;DHT22;4587;51.434;6.788;2023-06-14T06:00:31;21.40;76.80
9103;DHT22;4587;51.434;6.788;2023-06-14T06:02:57;21.20;77.90
9103;DHT22;4587;51.434;6.788;2023-06-14T06:05:23;21.20;77.80
9103;DHT22;4587;51.434;6.788;2023-06-14T06:07:49;21.00;78.40
9103;DHT22;4587;51.434;6.788;2023-06-14T06:10:15;21.00;78.90
9103;DHT22;4587;51.434;6.788;2023-06-14T06:12:41;20.90;78.80
9103;DHT22;4587;51.434;6.788;2023-06-14T06:15:07;20.90;79.20
9103;DHT22;4587;51.434;6.788;2023-06-14T06:17:33;20.90;80.80
9103;DHT22;4587;51.434;6.788;2023-06-14T06:19:59;21.00;79.20
9103;DHT22;4587;51.434;6.788;2023-06-14T06:22:24;21.10;79.10
9103;DHT22;4587;51.434;6.788;2023-06-14T06:24:50;21.70;78.80
9103;DHT22;4587;51.434;6.788;2023-06-14T06:27:16;22.90;75.40
9103;DHT22;4587;51.434;6.788;2023-06-14T06:29:42;24.60;70.70
9103;DHT22;4587;51.434;6.788;2023-06-14T06:32:09;25.80;69.10
9103;DHT22;4587;51.434;6.788;2023-06-14T06:34:34;26.50;63.90
9103;DHT22;4587;51.434;6.788;2023-06-14T06:37:02;27.50;62.10
9103;DHT22;4587;51.434;6.788;2023-06-14T06:39:28;28.60;59.50
9103;DHT22;4587;51.434;6.788;2023-06-14T06:41:53;29.40;58.00
9103;DHT22;4587;51.434;6.788;2023-06-14T06:44:19;30.30;56.60
9103;DHT22;4587;51.434;6.788;2023-06-14T06:46:44;31.20;57.60
9103;DHT22;4587;51.434;6.788;2023-06-14T06:49:10;31.30;55.60
9103;DHT22;4587;51.434;6.788;2023-06-14T06:51:37;31.70;54.20
9103;DHT22;4587;51.434;6.788;2023-06-14T06:54:03;32.40;50.90
9103;DHT22;4587;51.434;6.788;2023-06-14T06:56:29;32.80;54.40
9103;DHT22;4587;51.434;6.788;2023-06-14T06:58:54;33.20;54.40
9103;DHT22;4587;51.434;6.788;2023-06-14T07:01:20;33.50;56.60
9103;DHT22;4587;51.434;6.788;2023-06-14T07:03:46;33.70;54.10
9103;DHT22;4587;51.434;6.788;2023-06-14T07:06:12;34.10;53.00
9103;DHT22;4587;51.434;6.788;2023-06-14T07:08:38;34.30;53.10
9103;DHT22;4587;51.434;6.788;2023-06-14T07:11:04;34.70;52.80
9103;DHT22;4587;51.434;6.788;2023-06-14T07:13:30;35.10;54.30
9103;DHT22;4587;51.434;6.788;2023-06-14T07:15:58;35.50;61.90
9103;DHT22;4587;51.434;6.788;2023-06-14T07:18:24;35.50;54.70
9103;DHT22;4587;51.434;6.788;2023-06-14T07:20:50;35.60;52.80
9103;DHT22;4587;51.434;6.788;2023-06-14T07:23:15;35.70;52.30
9103;DHT22;4587;51.434;6.788;2023-06-14T07:25:41;35.80;52.40
9103;DHT22;4587;51.434;6.788;2023-06-14T07:28:07;35.90;42.60
9103;DHT22;4587;51.434;6.788;2023-06-14T07:30:32;36.10;43.20
9103;DHT22;4587;51.434;6.788;2023-06-14T07:32:58;36.50;43.00
9103;DHT22;4587;51.434;6.788;2023-06-14T07:35:24;36.60;42.80
9103;DHT22;4587;51.434;6.788;2023-06-14T07:37:49;36.80;42.90
9103;DHT22;4587;51.434;6.788;2023-06-14T07:40:15;37.00;42.00
9103;DHT22;4587;51.434;6.788;2023-06-14T07:42:41;36.90;41.70
9103;DHT22;4587;51.434;6.788;2023-06-14T07:45:07;37.00;41.50
9103;DHT22;4587;51.434;6.788;2023-06-14T07:47:34;36.80;41.10
9103;DHT22;4587;51.434;6.788;2023-06-14T07:49:59;36.60;40.90
9103;DHT22;4587;51.434;6.788;2023-06-14T07:52:25;36.50;41.30
9103;DHT22;4587;51.434;6.788;2023-06-14T07:54:51;36.50;41.00
9103;DHT22;4587;51.434;6.788;2023-06-14T07:57:16;36.20;41.10
9103;DHT22;4587;51.434;6.788;2023-06-14T07:59:42;36.20;41.20
9103;DHT22;4587;51.434;6.788;2023-06-14T08:02:07;36.10;41.70
9103;DHT22;4587;51.434;6.788;2023-06-14T08:04:33;36.20;41.50
9103;DHT22;4587;51.434;6.788;2023-06-14T08:06:59;35.70;41.90
9103;DHT22;4587;51.434;6.788;2023-06-14T08:09:25;35.10;42.60
9103;DHT22;4587;51.434;6.788;2023-06-14T08:11:52;33.60;42.90
9103;DHT22;4587;51.434;6.788;2023-06-14T08:14:18;32.20;44.40
9103;DHT22;4587;51.434;6.788;2023-06-14T08:16:43;31.30;45.20
9103;DHT22;4587;51.434;6.788;2023-06-14T08:19:09;30.50;46.70
9103;DHT22;4587;51.434;6.788;2023-06-14T08:21:35;30.00;47.50
9103;DHT22;4587;51.434;6.788;2023-06-14T08:24:02;29.40;47.70
9103;DHT22;4587;51.434;6.788;2023-06-14T08:26:27;28.80;48.60
9103;DHT22;4587;51.434;6.788;2023-06-14T08:28:57;28.20;48.90
9103;DHT22;4587;51.434;6.788;2023-06-14T08:31:23;28.00;49.70
9103;DHT22;4587;51.434;6.788;2023-06-14T08:33:49;27.90;50.10
9103;DHT22;4587;51.434;6.788;2023-06-14T08:36:14;27.70;50.90
9103;DHT22;4587;51.434;6.788;2023-06-14T08:38:40;27.50;51.30
9103;DHT22;4587;51.434;6.788;2023-06-14T08:41:06;27.40;51.10
9103;DHT22;4587;51.434;6.788;2023-06-14T08:43:32;27.20;51.90
9103;DHT22;4587;51.434;6.788;2023-06-14T08:46:00;27.30;52.40
9103;DHT22;4587;51.434;6.788;2023-06-14T08:48:27;27.40;52.20
9103;DHT22;4587;51.434;6.788;2023-06-14T08:50:55;27.50;51.60
9103;DHT22;4587;51.434;6.788;2023-06-14T08:53:28;27.50;51.70
9103;DHT22;4587;51.434;6.788;2023-06-14T08:55:54;27.30;51.30
9103;DHT22;4587;51.434;6.788;2023-06-14T08:58:21;27.20;52.60
9103;DHT22;4587;51.434;6.788;2023-06-14T09:00:49;27.30;52.60
9103;DHT22;4587;51.434;6.788;2023-06-14T09:03:18;27.40;52.40
9103;DHT22;4587;51.434;6.788;2023-06-14T09:05:45;27.30;52.00
9103;DHT22;4587;51.434;6.788;2023-06-14T09:08:12;26.90;51.80
9103;DHT22;4587;51.434;6.788;2023-06-14T09:10:39;26.60;52.70
9103;DHT22;4587;51.434;6.788;2023-06-14T09:13:06;26.70;52.70
9103;DHT22;4587;51.434;6.788;2023-06-14T09:15:32;26.70;53.10
9103;DHT22;4587;51.434;6.788;2023-06-14T09:17:58;26.80;52.50
9103;DHT22;4587;51.434;6.788;2023-06-14T09:20:26;26.90;52.90
9103;DHT22;4587;51.434;6.788;2023-06-14T09:22:52;26.80;52.30
9103;DHT22;4587;51.434;6.788;2023-06-14T09:25:18;26.70;52.60
9103;DHT22;4587;51.434;6.788;2023-06-14T09:27:45;26.80;53.10
9103;DHT22;4587;51.434;6.788;2023-06-14T09:30:12;26.50;52.00
9103;DHT22;4587;51.434;6.788;2023-06-14T09:32:39;26.40;52.40
9103;DHT22;4587;51.434;6.788;2023-06-14T09:35:09;26.30;51.70
9103;DHT22;4587;51.434;6.788;2023-06-14T09:37:35;26.10;52.20
9103;DHT22;4587;51.434;6.788;2023-06-14T09:40:01;26.20;52.30
9103;DHT22;4587;51.434;6.788;2023-06-14T09:42:28;26.10;52.10
9103;DHT22;4587;51.434;6.788;2023-06-14T09:44:56;26.10;52.00
9103;DHT22;4587;51.434;6.788;2023-06-14T09:47:23;26.00;52.60
9103;DHT22;4587;51.434;6.788;2023-06-14T09:49:49;26.10;51.70
9103;DHT22;4587;51.434;6.788;2023-06-14T09:52:16;25.80;52.60
9103;DHT22;4587;51.434;6.788;2023-06-14T09:54:44;25.90;53.10
9103;DHT22;4587;51.434;6.788;2023-06-14T09:57:20;26.00;52.40
9103;DHT22;4587;51.434;6.788;2023-06-14T09:59:46;26.20;52.50
9103;DHT22;4587;51.434;6.788;2023-06-14T10:02:21;26.20;52.10
9103;DHT22;4587;51.434;6.788;2023-06-14T10:04:56;26.10;52.00
9103;DHT22;4587;51.434;6.788;2023-06-14T10:07:26;25.90;52.20
9103;DHT22;4587;51.434;6.788;2023-06-14T10:09:55;25.90;52.30
9103;DHT22;4587;51.434;6.788;2023-06-14T10:12:21;26.00;51.40
9103;DHT22;4587;51.434;6.788;2023-06-14T10:14:51;26.10;51.70
9103;DHT22;4587;51.434;6.788;2023-06-14T10:22:50;25.80;52.80
9103;DHT22;4587;51.434;6.788;2023-06-14T10:25:27;26.00;52.80
9103;DHT22;4587;51.434;6.788;2023-06-14T10:28:03;26.10;52.40
9103;DHT22;4587;51.434;6.788;2023-06-14T10:30:29;26.10;52.50
9103;DHT22;4587;51.434;6.788;2023-06-14T10:33:15;26.10;53.20
9103;DHT22;4587;51.434;6.788;2023-06-14T10:35:41;26.20;53.80
9103;DHT22;4587;51.434;6.788;2023-06-14T10:38:11;26.20;53.40
9103;DHT22;4587;51.434;6.788;2023-06-14T10:40:38;26.10;52.00
9103;DHT22;4587;51.434;6.788;2023-06-14T10:43:23;26.10;52.40
9103;DHT22;4587;51.434;6.788;2023-06-14T10:46:27;26.00;52.80
9103;DHT22;4587;51.434;6.788;2023-06-14T10:48:57;26.00;52.30
9103;DHT22;4587;51.434;6.788;2023-06-14T10:51:22;25.90;51.00
9103;DHT22;4587;51.434;6.788;2023-06-14T10:53:49;25.80;51.40
9103;DHT22;4587;51.434;6.788;2023-06-14T10:56:30;25.70;51.20
9103;DHT22;4587;51.434;6.788;2023-06-14T10:58:57;25.80;51.80
9103;DHT22;4587;51.434;6.788;2023-06-14T11:01:37;25.80;51.70
9103;DHT22;4587;51.434;6.788;2023-06-14T11:04:10;25.80;52.30
9103;DHT22;4587;51.434;6.788;2023-06-14T11:06:49;25.70;52.10
9103;DHT22;4587;51.434;6.788;2023-06-14T11:09:50;25.70;52.80
9103;DHT22;4587;51.434;6.788;2023-06-14T11:12:18;25.70;52.60
9103;DHT22;4587;51.434;6.788;2023-06-14T11:14:46;25.80;53.40
9103;DHT22;4587;51.434;6.788;2023-06-14T11:17:13;25.90;52.40
9103;DHT22;4587;51.434;6.788;2023-06-14T11:19:38;26.00;52.30
9103;DHT22;4587;51.434;6.788;2023-06-14T11:22:04;26.00;51.90
9103;DHT22;4587;51.434;6.788;2023-06-14T11:24:31;25.90;52.50
9103;DHT22;4587;51.434;6.788;2023-06-14T11:26:57;25.80;53.00
9103;DHT22;4587;51.434;6.788;2023-06-14T11:29:23;25.80;53.20
9103;DHT22;4587;51.434;6.788;2023-06-14T11:31:48;25.80;53.20
9103;DHT22;4587;51.434;6.788;2023-06-14T11:34:14;25.60;53.10
9103;DHT22;4587;51.434;6.788;2023-06-14T11:36:40;25.50;53.70
9103;DHT22;4587;51.434;6.788;2023-06-14T11:39:07;25.50;53.70
9103;DHT22;4587;51.434;6.788;2023-06-14T11:41:39;25.40;53.60
9103;DHT22;4587;51.434;6.788;2023-06-14T11:44:05;25.40;54.40
9103;DHT22;4587;51.434;6.788;2023-06-14T11:46:31;25.40;56.00
9103;DHT22;4587;51.434;6.788;2023-06-14T11:48:57;25.50;56.70
9103;DHT22;4587;51.434;6.788;2023-06-14T11:51:23;25.50;55.40
9103;DHT22;4587;51.434;6.788;2023-06-14T11:53:49;25.50;54.10
9103;DHT22;4587;51.434;6.788;2023-06-14T11:56:15;25.50;54.60
9103;DHT22;4587;51.434;6.788;2023-06-14T11:58:43;25.50;54.40
9103;DHT22;4587;51.434;6.788;2023-06-14T12:01:09;25.50;57.00
9103;DHT22;4587;51.434;6.788;2023-06-14T12:03:34;25.50;57.80
9103;DHT22;4587;51.434;6.788;2023-06-14T12:06:08;25.60;54.80
9103;DHT22;4587;51.434;6.788;2023-06-14T12:08:35;25.60;54.90
9103;DHT22;4587;51.434;6.788;2023-06-14T12:11:11;25.60;54.80
9103;DHT22;4587;51.434;6.788;2023-06-14T12:13:41;25.60;54.80
9103;DHT22;4587;51.434;6.788;2023-06-14T12:16:08;25.40;54.90
9103;DHT22;4587;51.434;6.788;2023-06-14T12:18:35;25.40;54.60
9103;DHT22;4587;51.434;6.788;2023-06-14T12:21:03;25.40;55.50
9103;DHT22;4587;51.434;6.788;2023-06-14T12:26:05;25.40;55.80
9103;DHT22;4587;51.434;6.788;2023-06-14T12:28:31;25.50;55.80
9103;DHT22;4587;51.434;6.788;2023-06-14T12:30:57;25.60;55.70
9103;DHT22;4587;51.434;6.788;2023-06-14T12:33:24;25.50;55.10
9103;DHT22;4587;51.434;6.788;2023-06-14T12:35:50;25.40;55.70
9103;DHT22;4587;51.434;6.788;2023-06-14T12:38:16;25.50;56.90
9103;DHT22;4587;51.434;6.788;2023-06-14T12:40:42;25.60;56.50
9103;DHT22;4587;51.434;6.788;2023-06-14T12:43:08;25.60;59.60
9103;DHT22;4587;51.434;6.788;2023-06-14T12:45:33;25.50;58.30
9103;DHT22;4587;51.434;6.788;2023-06-14T12:47:59;25.50;59.20
9103;DHT22;4587;51.434;6.788;2023-06-14T12:50:25;25.60;59.70
9103;DHT22;4587;51.434;6.788;2023-06-14T12:52:50;25.60;61.00
9103;DHT22;4587;51.434;6.788;2023-06-14T12:55:16;25.50;61.50
9103;DHT22;4587;51.434;6.788;2023-06-14T12:57:41;25.70;59.70
9103;DHT22;4587;51.434;6.788;2023-06-14T13:00:08;25.70;60.40
9103;DHT22;4587;51.434;6.788;2023-06-14T13:02:34;25.60;66.40
9103;DHT22;4587;51.434;6.788;2023-06-14T13:05:00;25.70;65.50
9103;DHT22;4587;51.434;6.788;2023-06-14T13:07:26;25.80;63.60
9103;DHT22;4587;51.434;6.788;2023-06-14T13:09:51;25.70;63.40
9103;DHT22;4587;51.434;6.788;2023-06-14T13:12:17;25.80;61.80
9103;DHT22;4587;51.434;6.788;2023-06-14T13:14:42;25.80;62.50
9103;DHT22;4587;51.434;6.788;2023-06-14T13:17:09;25.80;62.80
9103;DHT22;4587;51.434;6.788;2023-06-14T13:19:35;25.80;62.30
9103;DHT22;4587;51.434;6.788;2023-06-14T13:22:00;25.70;64.10
9103;DHT22;4587;51.434;6.788;2023-06-14T13:24:26;25.70;63.80
9103;DHT22;4587;51.434;6.788;2023-06-14T13:26:52;25.80;62.90
9103;DHT22;4587;51.434;6.788;2023-06-14T13:29:17;25.80;62.20
9103;DHT22;4587;51.434;6.788;2023-06-14T13:31:43;25.80;62.70
9103;DHT22;4587;51.434;6.788;2023-06-14T13:34:08;25.90;64.10
9103;DHT22;4587;51.434;6.788;2023-06-14T13:36:34;25.90;63.80
9103;DHT22;4587;51.434;6.788;2023-06-14T13:39:00;26.00;64.90
9103;DHT22;4587;51.434;6.788;2023-06-14T13:41:27;26.10;64.30
9103;DHT22;4587;51.434;6.788;2023-06-14T13:43:57;26.00;63.40
9103;DHT22;4587;51.434;6.788;2023-06-14T13:46:23;26.00;65.00
9103;DHT22;4587;51.434;6.788;2023-06-14T13:48:49;25.90;63.90
9103;DHT22;4587;51.434;6.788;2023-06-14T13:51:14;25.90;63.40
9103;DHT22;4587;51.434;6.788;2023-06-14T13:53:40;25.80;62.60
9103;DHT22;4587;51.434;6.788;2023-06-14T13:56:06;25.90;63.10
9103;DHT22;4587;51.434;6.788;2023-06-14T13:58:31;25.90;62.80
9103;DHT22;4587;51.434;6.788;2023-06-14T14:00:57;25.90;61.90
9103;DHT22;4587;51.434;6.788;2023-06-14T14:03:24;26.00;61.50
9103;DHT22;4587;51.434;6.788;2023-06-14T14:05:50;26.00;61.30
9103;DHT22;4587;51.434;6.788;2023-06-14T14:08:15;25.90;62.00
9103;DHT22;4587;51.434;6.788;2023-06-14T14:10:41;25.90;62.20
9103;DHT22;4587;51.434;6.788;2023-06-14T14:13:07;25.90;63.20
9103;DHT22;4587;51.434;6.788;2023-06-14T14:15:32;26.00;62.60
9103;DHT22;4587;51.434;6.788;2023-06-14T14:18:00;26.00;62.80
9103;DHT22;4587;51.434;6.788;2023-06-14T14:20:25;26.20;63.50
9103;DHT22;4587;51.434;6.788;2023-06-14T14:22:51;26.20;63.20
9103;DHT22;4587;51.434;6.788;2023-06-14T14:25:17;26.00;62.70
9103;DHT22;4587;51.434;6.788;2023-06-14T14:27:42;26.00;60.60
9103;DHT22;4587;51.434;6.788;2023-06-14T14:30:08;25.90;60.50
9103;DHT22;4587;51.434;6.788;2023-06-14T14:32:34;25.90;61.50
9103;DHT22;4587;51.434;6.788;2023-06-14T14:34:59;26.00;62.80
9103;DHT22;4587;51.434;6.788;2023-06-14T14:37:25;26.10;63.70
9103;DHT22;4587;51.434;6.788;2023-06-14T14:39:51;26.10;62.10
9103;DHT22;4587;51.434;6.788;2023-06-14T14:42:16;26.20;61.00
9103;DHT22;4587;51.434;6.788;2023-06-14T14:44:42;26.20;63.70
9103;DHT22;4587;51.434;6.788;2023-06-14T14:47:07;26.30;63.60
9103;DHT22;4587;51.434;6.788;2023-06-14T14:49:33;26.30;62.80
9103;DHT22;4587;51.434;6.788;2023-06-14T14:51:58;26.40;62.50
9103;DHT22;4587;51.434;6.788;2023-06-14T14:54:24;26.30;61.90
9103;DHT22;4587;51.434;6.788;2023-06-14T14:56:51;26.10;62.10
9103;DHT22;4587;51.434;6.788;2023-06-14T14:59:16;26.00;62.10
9103;DHT22;4587;51.434;6.788;2023-06-14T15:01:42;26.10;63.30
9103;DHT22;4587;51.434;6.788;2023-06-14T15:04:08;26.00;62.80
9103;DHT22;4587;51.434;6.788;2023-06-14T15:06:33;26.10;63.20
9103;DHT22;4587;51.434;6.788;2023-06-14T15:09:01;26.10;62.60
9103;DHT22;4587;51.434;6.788;2023-06-14T15:11:26;26.20;63.60
9103;DHT22;4587;51.434;6.788;2023-06-14T15:13:52;26.20;63.50
9103;DHT22;4587;51.434;6.788;2023-06-14T15:16:18;26.30;63.90
9103;DHT22;4587;51.434;6.788;2023-06-14T15:18:43;26.20;63.80
9103;DHT22;4587;51.434;6.788;2023-06-14T15:21:09;26.20;64.90
9103;DHT22;4587;51.434;6.788;2023-06-14T15:23:35;26.20;64.90
9103;DHT22;4587;51.434;6.788;2023-06-14T15:26:00;26.20;65.00
9103;DHT22;4587;51.434;6.788;2023-06-14T15:28:26;26.20;66.10
9103;DHT22;4587;51.434;6.788;2023-06-14T15:30:55;26.00;65.60
9103;DHT22;4587;51.434;6.788;2023-06-14T15:33:20;26.00;69.40
9103;DHT22;4587;51.434;6.788;2023-06-14T15:35:46;26.10;70.90
9103;DHT22;4587;51.434;6.788;2023-06-14T15:38:12;26.00;68.50
9103;DHT22;4587;51.434;6.788;2023-06-14T15:40:37;26.10;72.60
9103;DHT22;4587;51.434;6.788;2023-06-14T15:43:03;26.00;73.10
9103;DHT22;4587;51.434;6.788;2023-06-14T15:45:29;25.90;75.70
9103;DHT22;4587;51.434;6.788;2023-06-14T15:47:54;25.90;78.90
9103;DHT22;4587;51.434;6.788;2023-06-14T15:50:20;25.80;64.20
9103;DHT22;4587;51.434;6.788;2023-06-14T15:52:46;25.90;66.70
9103;DHT22;4587;51.434;6.788;2023-06-14T15:55:12;25.90;69.20
9103;DHT22;4587;51.434;6.788;2023-06-14T15:57:38;25.80;68.90
9103;DHT22;4587;51.434;6.788;2023-06-14T16:00:04;25.90;65.50
9103;DHT22;4587;51.434;6.788;2023-06-14T16:02:29;25.90;77.20
9103;DHT22;4587;51.434;6.788;2023-06-14T16:04:55;26.00;78.20
9103;DHT22;4587;51.434;6.788;2023-06-14T16:07:21;26.10;68.40
9103;DHT22;4587;51.434;6.788;2023-06-14T16:09:46;25.80;69.40
9103;DHT22;4587;51.434;6.788;2023-06-14T16:12:12;25.80;68.90